Gjögur Airport

Airport
ICAO code: 
BIGJ
IATA Code: 
GJR
Summary
ICAO Region: 
NAT
Territory: 
Location: 
, Vestfiroir
Serving: 
Gjogur
Elevation: 
83 ft
Coordinates: 
Aerial View: 
65° 59' 43.001" N, 21° 19' 36.998" W
Metar
Observation
BIGJ 071400Z 27007KT 9999 OVC020 00/M04 Q0984
Station
Gjögur Airport
Date/Time
2021-12-07 14:00:00
Wind direction
270°
Wind speed
07 kts
Lowest cloud amount
overcast
Temperature
0°C
Dew point
-4°C
Humidity
74%
QNH
984 hPa
Weather condition
n/a

Runways

Designator Length Width Surface Rops
5/23 927 0 UNK No/No
Airport map: 
Aerial View: 

SKYbrary Partners:

Safety knowledge contributed by: